EW8784 Weather Reports


Display with metric or nautical units.
time (UTC)temp
F
wind
direction
speed
MPH
gust
MPH
rain 1hr
in
rain 24hr
in
rain mn
in
humidity
%
barometer
mb
20190122014504 47 42 5.0 8.0 0.00 0.00 0.00 55 1012.4
20190122014006 46 18 10.0 14.0 0.00 0.00 0.00 55 1012.4
20190122013519 46 66 10.0 14.0 0.00 0.00 0.00 55 1012.5
20190122013020 46 31 7.0 11.0 0.00 0.00 0.00 57 1012.5
20190122012500 46 45 8.0 10.0 0.00 0.00 0.00 58 1012.5
20190122012014 45 18 7.0 9.0 0.00 0.00 0.00 59 1012.6
20190122011521 45 340 12.0 18.0 0.00 0.00 0.00 60 1012.6
20190122011005 44 48 8.0 14.0 0.00 0.00 0.00 60 1012.7
20190122010518 44 328 8.0 12.0 0.00 0.00 0.00 62 1012.6
20190122010006 43 41 13.0 18.0 0.00 0.00 0.00 61 1012.7
20190122005505 43 51 8.0 14.0 0.00 0.00 0.00 61 1012.9
20190122005018 43 359 12.0 19.0 0.00 0.00 0.00 61 1012.9
20190122004505 42 350 10.0 16.0 0.00 0.00 0.00 60 1012.8
20190122004013 42 53 12.0 18.0 0.00 0.00 0.00 59 1012.8
20190122003502 42 325 7.0 10.0 0.00 0.00 0.00 59 1012.7
20190122003016 42 63 9.0 15.0 0.00 0.00 0.00 58 1012.7
20190122002515 42 14 7.0 10.0 0.00 0.00 0.00 58 1012.6
20190122002003 42 53 7.0 10.0 0.00 0.00 0.00 58 1012.5
20190122001517 42 340 8.0 11.0 0.00 0.00 0.00 58 1012.4
20190122001005 42 53 9.0 14.0 0.00 0.00 0.00 58 1012.4
20190122000501 41 4 6.0 9.0 0.00 0.00 0.00 59 1012.3
20190122000015 41 35 7.0 10.0 0.00 0.00 0.00 61 1012.1
20190121235518 41 55 5.0 7.0 0.00 0.00 0.00 62 1012.0
20190121235018 40 7 5.0 7.0 0.00 0.00 0.00 64 1012.0
20190121234500 39 35 3.0 6.0 0.00 0.00 0.00 68 1011.8
20190121234002 38 27 4.0 7.0 0.00 0.00 0.00 73 1011.8
20190121233516 37 8 0.0 0.0 0.00 0.00 0.00 78 1011.8
20190121233004 37 8 0.0 0.0 0.00 0.00 0.00 79 1011.8
20190121232505 36 8 0.0 0.0 0.00 0.00 0.00 80 1011.5
20190121232001 36 8 0.0 0.0 0.00 0.00 0.00 81 1011.5
20190121231503 35 8 0.0 0.0 0.00 0.00 0.00 82 1011.5
20190121231004 35 8 0.0 0.0 0.00 0.00 0.00 82 1011.6
20190121230518 34 8 0.0 0.0 0.00 0.00 0.00 83 1011.4
20190121230018 34 8 0.0 0.0 0.00 0.00 0.00 83 1011.3
20190121225515 33 8 0.0 0.0 0.00 0.00 0.00 83 1011.5
20190121225014 33 8 0.0 0.0 0.00 0.00 0.00 83 1011.5
20190121224503 33 8 0.0 0.0 0.00 0.00 0.00 83 1011.5
20190121224004 32 8 0.0 0.0 0.00 0.00 0.00 83 1011.4
20190121223509 32 338 0.0 0.0 0.00 0.00 0.00 83 1011.3
20190121223020 32 338 0.0 0.0 0.00 0.00 0.00 83 1011.3
20190121222501 32 338 0.0 0.0 0.00 0.00 0.00 83 1011.4
20190121222003 32 338 0.0 0.0 0.00 0.00 0.00 83 1011.4
20190121221517 32 338 0.0 0.0 0.00 0.00 0.00 83 1011.4
20190121221017 32 338 0.0 0.0 0.00 0.00 0.00 83 1011.5
20190121220516 32 345 0.0 0.0 0.00 0.00 0.00 83 1011.3
20190121220004 32 345 0.0 0.0 0.00 0.00 0.00 83 1011.4
20190121215504 32 345 0.0 0.0 0.00 0.00 0.00 83 1011.2
20190121215004 32 345 0.0 0.0 0.00 0.00 0.00 83 1011.3
20190121214500 32 345 0.0 0.0 0.00 0.00 0.00 83 1011.3
20190121214002 32 345 0.0 0.0 0.00 0.00 0.00 83 1011.4
20190121213516 32 354 0.0 0.0 0.00 0.00 0.00 83 1011.4
20190121213016 32 354 0.0 0.0 0.00 0.00 0.00 84 1011.4
20190121212516 31 354 0.0 0.0 0.00 0.00 0.00 83 1011.4
20190121212016 31 354 0.0 0.0 0.00 0.00 0.00 83 1011.4
20190121211516 32 354 0.0 0.0 0.00 0.00 0.00 82 1011.5
20190121211004 32 354 0.0 0.0 0.00 0.00 0.00 82 1011.5
20190121210505 33 354 1.0 2.0 0.00 0.00 0.00 81 1011.4
20190121210003 33 354 0.0 0.0 0.00 0.00 0.00 81 1011.5
20190121205535 34 354 0.0 0.0 0.00 0.00 0.00 82 1011.5
20190121205015 33 354 0.0 0.0 0.00 0.00 0.00 83 1011.5
20190121204503 33 354 0.0 0.0 0.00 0.00 0.00 83 1011.5
20190121204004 32 354 0.0 0.0 0.00 0.00 0.00 83 1011.5
20190121203500 32 354 0.0 0.0 0.00 0.00 0.00 83 1011.4
20190121203020 32 354 0.0 0.0 0.00 0.00 0.00 83 1011.4
20190121202514 33 354 0.0 0.0 0.00 0.00 0.00 82 1011.2
20190121202002 33 354 1.0 2.0 0.00 0.00 0.00 83 1011.1
20190121201516 32 18 0.0 0.0 0.00 0.00 0.00 83 1011.0
20190121201016 32 18 0.0 0.0 0.00 0.00 0.00 83 1010.9
20190121200505 33 18 0.0 0.0 0.00 0.00 0.00 82 1010.8
20190121200007 33 18 0.0 0.0 0.00 0.00 0.00 82 1010.7
20190121195517 33 321 0.0 0.0 0.00 0.00 0.00 81 1010.6
20190121195004 34 321 0.0 0.0 0.00 0.00 0.00 81 1010.7
20190121194518 34 321 0.0 0.0 0.00 0.00 0.00 82 1010.6
20190121194018 33 321 0.0 0.0 0.00 0.00 0.00 82 1010.7
20190121193507 33 321 0.0 0.0 0.00 0.00 0.00 82 1010.7
20190121193014 33 321 0.0 0.0 0.00 0.00 0.00 81 1010.7
20190121192520 34 321 0.0 0.0 0.00 0.00 0.00 81 1010.7
20190121192002 34 321 0.0 0.0 0.00 0.00 0.00 81 1010.6
20190121191516 34 321 0.0 0.0 0.00 0.00 0.00 81 1010.5
20190121191004 34 321 0.0 0.0 0.00 0.00 0.00 81 1010.6
20190121190518 34 321 0.0 0.0 0.00 0.00 0.00 81 1010.6
20190121190007 34 321 0.0 0.0 0.00 0.00 0.00 82 1010.5
20190121185517 34 321 0.0 0.0 0.00 0.00 0.00 82 1010.5
20190121185004 33 321 0.0 0.0 0.00 0.00 0.00 82 1010.5
20190121184518 33 321 0.0 0.0 0.00 0.00 0.00 82 1010.5
20190121184000 34 321 0.0 0.0 0.00 0.00 0.00 81 1010.5
20190121183520 34 321 0.0 0.0 0.00 0.00 0.00 80 1010.5
20190121183020 35 321 0.0 0.0 0.00 0.00 0.00 79 1010.5
20190121182520 35 321 0.0 0.0 0.00 0.00 0.00 80 1010.5
20190121182002 35 321 0.0 0.0 0.00 0.00 0.00 81 1010.5
20190121181516 35 321 0.0 0.0 0.00 0.00 0.00 81 1010.5
20190121181016 34 321 0.0 0.0 0.00 0.00 0.00 81 1010.5
20190121180503 34 321 0.0 0.0 0.00 0.00 0.00 81 1010.6
20190121180004 34 46 0.0 0.0 0.00 0.00 0.00 81 1010.5
20190121175504 34 46 0.0 0.0 0.00 0.00 0.00 81 1010.5
20190121175005 34 46 0.0 0.0 0.00 0.00 0.00 81 1010.4
20190121174518 34 46 0.0 0.0 0.00 0.00 0.00 81 1010.4
20190121174000 34 46 0.0 0.0 0.00 0.00 0.00 80 1010.6
20190121173520 35 46 0.0 0.0 0.00 0.00 0.00 80 1010.4
20190121173014 35 46 0.0 0.0 0.00 0.00 0.00 80 1010.3
20190121172502 35 46 0.0 0.0 0.00 0.00 0.00 81 1010.3
20190121172005 35 46 0.0 0.0 0.00 0.00 0.00 81 1010.3
20190121171518 35 46 0.0 0.0 0.00 0.00 0.00 81 1010.2
20190121171006 34 46 0.0 0.0 0.00 0.00 0.00 81 1010.2
20190121170502 34 46 0.0 0.0 0.00 0.00 0.00 82 1010.2
20190121170004 35 46 0.0 0.0 0.00 0.00 0.00 81 1010.2
20190121165515 35 46 0.0 0.0 0.00 0.00 0.00 81 1010.2
20190121165020 35 46 0.0 0.0 0.00 0.00 0.00 81 1010.1
20190121164520 35 46 0.0 0.0 0.00 0.00 0.00 82 1010.0
20190121164003 35 46 0.0 0.0 0.00 0.00 0.00 82 1010.0
20190121163504 36 46 0.0 0.0 0.00 0.00 0.00 81 1009.9
20190121163007 36 46 0.0 0.0 0.00 0.00 0.00 81 1009.8
20190121162502 36 46 0.0 0.0 0.00 0.00 0.00 81 1009.8
20190121162005 36 27 0.0 1.0 0.00 0.00 0.00 80 1009.9
20190121161506 36 18 0.0 0.0 0.00 0.00 0.00 77 1009.8
20190121161019 36 18 0.0 0.0 0.00 0.00 0.00 76 1009.9
20190121160519 36 18 0.0 0.0 0.00 0.00 0.00 76 1009.8
20190121160019 36 18 1.0 3.0 0.00 0.00 0.00 75 1009.7
20190121155504 36 17 0.0 0.0 0.00 0.00 0.00 75 1009.7
20190121155005 36 17 0.0 0.0 0.00 0.00 0.00 75 1009.6
20190121154501 36 349 0.0 0.0 0.00 0.00 0.00 75 1009.6
20190121154004 37 356 0.0 0.0 0.00 0.00 0.00 75 1009.5
20190121153506 37 11 0.0 0.0 0.00 0.00 0.00 76 1009.3
20190121153002 37 11 0.0 0.0 0.00 0.00 0.00 76 1009.4
20190121152504 37 11 0.0 0.0 0.00 0.00 0.00 77 1009.3
20190121152006 37 11 0.0 0.0 0.00 0.00 0.00 77 1009.5
20190121151519 36 11 0.0 0.0 0.00 0.00 0.00 76 1009.5
20190121151007 37 11 0.0 0.0 0.00 0.00 0.00 75 1009.5
20190121150503 37 11 0.0 0.0 0.00 0.00 0.00 75 1009.5
20190121150017 38 11 0.0 0.0 0.00 0.00 0.00 75 1009.5
20190121145503 38 11 0.0 0.0 0.00 0.00 0.00 75 1009.4
20190121145003 37 11 0.0 0.0 0.00 0.00 0.00 75 1009.5
20190121144517 38 11 0.0 0.0 0.00 0.00 0.00 74 1009.5
20190121144005 39 11 0.0 0.0 0.00 0.00 0.00 74 1009.5
20190121143519 39 11 0.0 0.0 0.00 0.00 0.00 74 1009.5
20190121143019 39 11 0.0 0.0 0.00 0.00 0.00 74 1009.6
20190121142501 39 11 0.0 0.0 0.00 0.00 0.00 74 1009.6
20190121142015 39 11 0.0 0.0 0.00 0.00 0.00 75 1009.6
20190121141515 38 11 0.0 0.0 0.00 0.00 0.00 74 1009.6
20190121141021 38 11 0.0 0.0 0.00 0.00 0.00 73 1009.6
20190121140520 38 11 0.0 0.0 0.00 0.00 0.00 74 1009.7
20190121140020 38 11 0.0 0.0 0.00 0.00 0.00 74 1009.7
20190121135506 37 11 0.0 0.0 0.00 0.00 0.00 74 1009.6
20190121135017 38 11 0.0 0.0 0.00 0.00 0.00 74 1009.6
20190121134506 38 11 0.0 0.0 0.00 0.00 0.00 74 1009.7
20190121134019 37 11 0.0 0.0 0.00 0.00 0.00 74 1009.7
20190121133501 38 11 0.0 0.0 0.00 0.00 0.00 75 1009.7
20190121133015 38 11 0.0 0.0 0.00 0.00 0.00 75 1009.7
20190121132515 38 11 0.0 1.0 0.00 0.00 0.00 76 1009.7
20190121132015 38 28 0.0 0.0 0.00 0.00 0.00 75 1009.7
20190121131503 38 28 0.0 0.0 0.00 0.00 0.00 74 1009.6
20190121131017 38 28 0.0 0.0 0.00 0.00 0.00 74 1009.5
20190121130506 39 28 0.0 0.0 0.00 0.00 0.00 74 1009.6
20190121130019 39 28 0.0 0.0 0.00 0.00 0.00 74 1009.6
20190121125516 39 28 0.0 0.0 0.00 0.00 0.00 73 1009.5
20190121125002 39 28 0.0 0.0 0.00 0.00 0.00 73 1009.6
20190121124515 40 28 0.0 0.0 0.00 0.00 0.00 73 1009.7
20190121124004 40 28 0.0 0.0 0.00 0.00 0.00 73 1009.7
20190121123505 40 28 0.0 0.0 0.00 0.00 0.00 73 1009.7
20190121123000 40 28 0.0 0.0 0.00 0.00 0.00 73 1009.6
20190121122520 40 28 0.0 0.0 0.00 0.00 0.00 73 1009.6
20190121122002 40 28 0.0 0.0 0.00 0.00 0.00 74 1009.6
20190121121515 39 28 0.0 0.0 0.00 0.00 0.00 74 1009.7
20190121121004 39 28 0.0 0.0 0.00 0.00 0.00 74 1009.7
20190121120517 39 28 0.0 0.0 0.00 0.00 0.00 74 1009.7
20190121120017 39 15 1.0 3.0 0.00 0.00 0.00 74 1009.8
20190121115520 40 24 0.0 0.0 0.00 0.00 0.00 73 1009.7
20190121115029 40 24 0.0 0.0 0.00 0.00 0.00 72 1009.8
20190121114520 40 24 0.0 0.0 0.00 0.00 0.00 72 1009.8
20190121114002 40 24 0.0 0.0 0.00 0.00 0.00 72 1009.9
20190121113504 40 24 0.0 0.0 0.00 0.00 0.00 72 1009.8
20190121113006 40 24 0.0 0.0 0.00 0.00 0.00 71 1009.9
20190121112502 41 24 0.0 0.0 0.00 0.00 0.00 71 1009.8
20190121112015 41 24 0.0 0.0 0.00 0.00 0.00 70 1009.8
20190121111515 41 24 0.0 0.0 0.00 0.00 0.00 70 1009.7
20190121111003 41 24 0.0 0.0 0.00 0.00 0.00 70 1009.7
20190121110505 41 24 0.0 0.0 0.00 0.00 0.00 70 1009.7
20190121110018 41 24 0.0 0.0 0.00 0.00 0.00 70 1009.7
20190121105504 41 24 0.0 0.0 0.00 0.00 0.00 70 1009.6
20190121105006 41 24 0.0 0.0 0.00 0.00 0.00 69 1009.6
20190121104507 41 24 0.0 0.0 0.00 0.00 0.00 69 1009.6
20190121104014 41 24 0.0 0.0 0.00 0.00 0.00 69 1009.6
20190121103503 41 24 0.0 0.0 0.00 0.00 0.00 69 1009.6
20190121103016 42 24 0.0 0.0 0.00 0.00 0.00 69 1009.5
20190121102516 42 24 0.0 0.0 0.00 0.00 0.00 69 1009.5
20190121102005 42 24 0.0 0.0 0.00 0.00 0.00 68 1009.4
20190121101507 42 24 0.0 1.0 0.00 0.00 0.00 68 1009.5
20190121101020 42 20 0.0 0.0 0.00 0.00 0.00 67 1009.3
20190121100520 43 20 0.0 0.0 0.00 0.00 0.00 66 1009.1
20190121100009 43 20 0.0 0.0 0.00 0.00 0.00 67 1009.3
20190121095502 44 20 0.0 0.0 0.00 0.00 0.00 66 1009.1
20190121095004 44 20 0.0 0.0 0.00 0.00 0.00 65 1009.1
20190121094505 45 20 0.0 0.0 0.00 0.00 0.00 63 1009.1
20190121094018 45 20 0.0 0.0 0.00 0.00 0.00 63 1009.0
20190121093506 45 20 0.0 0.0 0.00 0.00 0.00 63 1008.9
20190121093020 45 20 0.0 0.0 0.00 0.00 0.00 62 1008.9
20190121092520 45 20 0.0 0.0 0.00 0.00 0.00 62 1008.9
20190121092002 46 20 0.0 0.0 0.00 0.00 0.00 61 1008.8
20190121091516 47 20 0.0 0.0 0.00 0.00 0.00 57 1008.8
20190121091004 47 20 0.0 0.0 0.00 0.00 0.00 56 1008.8
20190121090506 47 20 0.0 0.0 0.00 0.00 0.00 57 1008.6
20190121090008 47 20 0.0 0.0 0.00 0.00 0.00 57 1008.7
20190121085507 47 20 0.0 0.0 0.00 0.00 0.00 56 1008.7
20190121085002 47 20 0.0 0.0 0.00 0.00 0.00 56 1008.5
20190121084515 47 20 0.0 0.0 0.00 0.00 0.00 57 1008.6
20190121084015 47 20 0.0 0.0 0.00 0.00 0.00 57 1008.5
20190121083515 47 20 0.0 0.0 0.00 0.00 0.00 57 1008.5
20190121083005 47 20 0.0 0.0 0.00 0.00 0.00 56 1008.4
20190121082506 47 20 0.0 0.0 0.00 0.00 0.00 56 1008.3
20190121082002 48 20 0.0 0.0 0.00 0.00 0.00 54 1008.3
20190121081504 48 20 0.0 0.0 0.00 0.00 0.00 53 1008.3
20190121081005 48 20 0.0 0.0 0.00 0.00 0.00 52 1008.4
20190121080507 48 20 0.0 1.0 0.00 0.00 0.00 52 1008.1
20190121080009 49 20 3.0 6.0 0.00 0.00 0.00 51 1008.1
20190121075503 49 34 0.0 0.0 0.00 0.00 0.00 51 1008.2
20190121075021 49 34 0.0 0.0 0.00 0.00 0.00 51 1008.0
20190121074502 49 34 0.0 0.0 0.00 0.00 0.00 51 1008.1
20190121074005 49 34 1.0 5.0 0.00 0.00 0.00 51 1008.0
20190121073518 49 21 4.0 6.0 0.00 0.00 0.00 50 1008.0
20190121073005 50 53 1.0 3.0 0.00 0.00 0.00 50 1008.0
20190121072519 49 23 2.0 4.0 0.00 0.00 0.00 49 1008.0
20190121072006 50 56 6.0 8.0 0.00 0.00 0.00 49 1008.0
20190121071508 50 32 2.0 4.0 0.00 0.00 0.00 49 1008.0
20190121071003 50 70 4.0 7.0 0.00 0.00 0.00 48 1008.0
20190121070505 51 21 5.0 6.0 0.00 0.00 0.00 48 1007.8
20190121070018 52 23 5.0 8.0 0.00 0.00 0.00 46 1007.8
20190121065516 53 46 1.0 2.0 0.00 0.00 0.00 45 1007.7
20190121065004 53 72 4.0 6.0 0.00 0.00 0.00 45 1007.7
20190121064505 54 17 3.0 6.0 0.00 0.00 0.00 43 1007.7
20190121064019 55 42 4.0 7.0 0.00 0.00 0.00 42 1007.7
20190121063519 55 68 2.0 4.0 0.00 0.00 0.00 43 1007.7
20190121063019 55 89 2.0 8.0 0.00 0.00 0.00 42 1007.7
20190121062507 54 84 4.0 6.0 0.00 0.00 0.00 43 1007.6
20190121062003 55 13 4.0 6.0 0.00 0.00 0.00 42 1007.9
20190121061516 56 97 0.0 0.0 0.00 0.00 0.00 40 1007.8
20190121061005 56 72 1.0 4.0 0.00 0.00 0.00 41 1007.8
20190121060501 56 80 2.0 4.0 0.00 0.00 0.00 40 1007.8
20190121060021 56 68 0.0 0.0 0.00 0.00 0.00 40 1007.8
20190121055518 56 93 3.0 6.0 0.00 0.00 0.00 40 1007.7
20190121055005 55 86 1.0 3.0 0.00 0.00 0.00 40 1007.7
20190121054506 55 18 0.0 1.0 0.00 0.00 0.00 41 1007.7
20190121054002 55 39 3.0 5.0 0.00 0.00 0.00 40 1007.7
20190121053504 55 104 1.0 7.0 0.00 0.00 0.00 40 1007.8
20190121053005 54 70 3.0 7.0 0.00 0.00 0.00 40 1007.7
20190121052519 54 326 1.0 4.0 0.00 0.00 0.00 40 1007.7
20190121052019 54 56 0.0 0.0 0.00 0.00 0.00 41 1007.7
20190121051501 54 83 4.0 7.0 0.00 0.00 0.00 41 1007.8
20190121051021 53 108 6.0 9.0 0.00 0.00 0.00 40 1007.6
20190121050506 54 77 4.0 8.0 0.00 0.00 0.00 40 1007.6
20190121050020 54 63 1.0 4.0 0.00 0.00 0.00 40 1007.6
20190121045505 54 65 2.0 4.0 0.00 0.00 0.00 40 1007.7
20190121045019 53 96 2.0 5.0 0.00 0.00 0.00 41 1007.7
20190121044518 54 89 3.0 6.0 0.00 0.00 0.00 40 1007.7
20190121044005 54 69 0.0 2.0 0.00 0.00 0.00 40 1007.7
20190121043507 54 94 4.0 8.0 0.00 0.00 0.00 41 1007.8
20190121043021 53 122 2.0 6.0 0.00 0.00 0.00 41 1007.8
20190121042502 54 121 2.0 5.0 0.00 0.00 0.00 40 1007.9
20190121042004 53 93 0.0 2.0 0.00 0.00 0.00 40 1008.0
20190121041506 53 145 5.0 8.0 0.00 0.00 0.00 41 1008.1
20190121041019 53 77 6.0 8.0 0.00 0.00 0.00 40 1008.1
20190121040506 53 120 1.0 5.0 0.00 0.00 0.00 40 1008.0
20190121040008 54 148 1.0 2.0 0.00 0.00 0.00 40 1008.0
20190121035507 53 197 2.0 6.0 0.00 0.00 0.00 40 1008.2
20190121035002 53 149 4.0 6.0 0.00 0.00 0.00 40 1008.3
20190121034503 53 37 0.0 0.0 0.00 0.00 0.00 40 1008.3
20190121034005 53 79 0.0 0.0 0.00 0.00 0.00 40 1008.3
20190121033518 53 148 1.0 3.0 0.00 0.00 0.00 41 1008.4
20190121033005 52 166 3.0 7.0 0.00 0.00 0.00 41 1008.6
20190121032506 52 103 2.0 4.0 0.00 0.00 0.00 42 1008.5
20190121032002 51 181 0.0 2.0 0.00 0.00 0.00 43 1008.7
20190121031504 51 167 6.0 8.0 0.00 0.00 0.00 43 1008.7
20190121031017 50 56 0.0 0.0 0.00 0.00 0.00 44 1008.9
20190121030505 50 51 2.0 5.0 0.00 0.00 0.00 44 1009.0
20190121030006 50 93 4.0 8.0 0.00 0.00 0.00 44 1009.0
20190121025517 51 87 1.0 3.0 0.00 0.00 0.00 42 1009.1
20190121025005 51 73 4.0 7.0 0.00 0.00 0.00 42 1009.2
20190121024534 51 165 0.0 0.0 0.00 0.00 0.00 42 1009.3
20190121024007 50 110 2.0 3.0 0.00 0.00 0.00 42 1009.5
20190121023503 50 156 2.0 5.0 0.00 0.00 0.00 42 1009.5
20190121023016 50 66 3.0 6.0 0.00 0.00 0.00 42 1009.7
20190121022516 50 94 2.0 4.0 0.00 0.00 0.00 42 1009.8
20190121022016 49 343 0.0 0.0 0.00 0.00 0.00 42 1009.9
20190121021516 49 52 2.0 5.0 0.00 0.00 0.00 41 1010.1
20190121021004 49 58 0.0 0.0 0.00 0.00 0.00 41 1010.2
20190121020505 49 70 3.0 5.0 0.00 0.00 0.00 42 1010.3
20190121020019 48 84 3.0 9.0 0.00 0.00 0.00 42 1010.5
20190121015505 48 17 3.0 5.0 0.00 0.00 0.00 42 1010.7
20190121015005 48 45 2.0 3.0 0.00 0.00 0.00 42 1010.8
20190121014519 48 342 5.0 8.0 0.00 0.00 0.00 43 1010.9